createdAt,value
2023-07-24T00:02:18.552Z,21.60
2023-07-24T00:04:56.832Z,21.50
2023-07-24T00:07:34.503Z,21.30
2023-07-24T00:10:23.928Z,21.20
2023-07-24T00:13:00.512Z,21.20
2023-07-24T00:15:38.142Z,21.10
2023-07-24T00:18:23.228Z,21.00
2023-07-24T00:21:12.139Z,21.00
2023-07-24T00:23:50.320Z,20.90
2023-07-24T00:26:33.853Z,20.90
2023-07-24T00:29:13.897Z,20.90
2023-07-24T00:31:53.116Z,20.80
2023-07-24T00:34:29.883Z,20.70
2023-07-24T00:37:07.823Z,20.70
2023-07-24T00:39:43.537Z,20.60
2023-07-24T00:42:24.986Z,20.60
2023-07-24T00:45:05.701Z,20.60
2023-07-24T00:47:40.567Z,20.50
2023-07-24T00:50:20.826Z,20.40
2023-07-24T00:53:01.905Z,20.30
2023-07-24T00:55:35.785Z,20.30
2023-07-24T00:58:18.725Z,20.20
2023-07-24T01:00:54.097Z,20.20
2023-07-24T01:03:33.935Z,20.10
2023-07-24T01:06:12.616Z,19.90
2023-07-24T01:08:54.689Z,19.90
2023-07-24T01:11:39.167Z,19.90
2023-07-24T01:14:30.797Z,19.80
2023-07-24T01:17:09.742Z,19.80
2023-07-24T01:19:50.698Z,19.70
2023-07-24T01:22:37.266Z,19.60
2023-07-24T01:25:14.788Z,19.60
2023-07-24T01:27:53.724Z,19.60
2023-07-24T01:30:33.642Z,19.60
2023-07-24T01:33:08.461Z,19.70
2023-07-24T01:35:44.844Z,19.60
2023-07-24T01:38:24.289Z,19.60
2023-07-24T01:40:58.596Z,19.60
2023-07-24T01:46:38.229Z,19.50
2023-07-24T01:49:14.512Z,19.40
2023-07-24T01:51:53.686Z,19.40
2023-07-24T01:54:38.072Z,19.30
2023-07-24T01:57:15.989Z,19.40
2023-07-24T01:59:53.991Z,19.30
2023-07-24T02:02:37.518Z,19.30
2023-07-24T02:07:53.634Z,19.30
2023-07-24T02:13:35.804Z,19.20
2023-07-24T02:36:53.092Z,19.20
2023-07-24T02:39:36.688Z,19.20
2023-07-24T02:42:35.839Z,19.30
2023-07-24T02:48:10.184Z,19.30
2023-07-24T02:51:01.398Z,19.30
2023-07-24T02:53:41.493Z,19.20
2023-07-24T02:56:22.960Z,19.30
2023-07-24T02:59:02.621Z,19.20
2023-07-24T03:01:47.377Z,19.20
2023-07-24T03:04:32.912Z,19.20
2023-07-24T03:07:10.266Z,19.30
2023-07-24T03:10:03.937Z,19.30
2023-07-24T03:12:45.173Z,19.20
2023-07-24T03:15:36.408Z,19.20
2023-07-24T03:18:16.166Z,19.20
2023-07-24T03:29:53.686Z,19.00
2023-07-24T03:32:32.104Z,19.00
2023-07-24T03:35:21.938Z,19.00
2023-07-24T03:37:58.513Z,19.00
2023-07-24T03:40:45.102Z,19.00
2023-07-24T03:43:27.211Z,19.00
2023-07-24T03:46:05.711Z,19.10
2023-07-24T03:51:40.220Z,19.20
2023-07-24T03:54:15.057Z,19.20
2023-07-24T03:56:54.193Z,19.30
2023-07-24T03:59:29.547Z,19.40
2023-07-24T04:02:07.830Z,19.40
2023-07-24T04:04:46.156Z,19.50
2023-07-24T04:07:26.991Z,19.50
2023-07-24T04:10:03.059Z,19.60
2023-07-24T04:12:42.137Z,19.60
2023-07-24T04:15:19.768Z,19.70
2023-07-24T05:30:43.683Z,21.40
2023-07-24T05:33:20.674Z,21.50
2023-07-24T05:36:05.041Z,21.50
2023-07-24T05:41:45.001Z,21.70
2023-07-24T05:44:20.264Z,21.80
2023-07-24T05:46:59.557Z,22.00
2023-07-24T05:55:45.634Z,22.40
2023-07-24T05:58:23.837Z,22.40
2023-07-24T06:00:58.162Z,22.50
2023-07-24T06:06:49.434Z,22.60
2023-07-24T06:09:36.299Z,22.70
2023-07-24T06:15:11.861Z,22.80
2023-07-24T06:17:47.707Z,22.80
2023-07-24T06:20:26.195Z,22.80
2023-07-24T06:23:02.939Z,22.90
2023-07-24T06:25:44.844Z,22.90
2023-07-24T06:28:25.894Z,23.00
2023-07-24T06:31:04.028Z,22.90
2023-07-24T06:36:47.918Z,23.00
2023-07-24T06:39:27.246Z,23.10
2023-07-24T06:42:14.255Z,23.10
2023-07-24T06:45:06.585Z,23.20
2023-07-24T06:50:59.630Z,23.30
2023-07-24T06:53:42.890Z,23.40
2023-07-24T07:05:40.968Z,24.00
2023-07-24T07:08:17.175Z,24.40
2023-07-24T07:14:10.978Z,25.10
2023-07-24T07:16:47.155Z,25.50
2023-07-24T07:19:27.216Z,25.90
2023-07-24T07:22:09.288Z,26.30
2023-07-24T07:24:59.873Z,26.70
2023-07-24T07:27:45.105Z,27.10
2023-07-24T07:30:31.271Z,27.60
2023-07-24T07:33:10.850Z,28.00
2023-07-24T07:35:50.127Z,28.40
2023-07-24T07:38:24.179Z,28.80
2023-07-24T07:41:09.145Z,28.90
2023-07-24T07:43:51.928Z,29.10
2023-07-24T07:46:30.323Z,29.40
2023-07-24T07:49:09.052Z,29.60
2023-07-24T07:51:49.667Z,29.80
2023-07-24T07:54:33.876Z,30.10
2023-07-24T07:57:17.990Z,30.50
2023-07-24T08:00:01.084Z,30.80
2023-07-24T08:02:49.513Z,31.10
2023-07-24T08:05:27.069Z,31.30
2023-07-24T08:08:18.744Z,31.40
2023-07-24T08:11:09.749Z,31.70
2023-07-24T08:13:43.734Z,31.90
2023-07-24T08:16:27.659Z,31.90
2023-07-24T08:19:25.692Z,32.00
2023-07-24T08:22:09.861Z,32.20
2023-07-24T08:24:55.972Z,32.30
2023-07-24T08:27:34.715Z,32.30
2023-07-24T08:30:21.569Z,32.40
2023-07-24T08:33:02.444Z,32.50
2023-07-24T08:35:40.008Z,32.50
2023-07-24T08:38:22.576Z,32.90
2023-07-24T08:41:22.766Z,32.90
2023-07-24T08:44:02.510Z,33.10
2023-07-24T08:46:49.069Z,33.10
2023-07-24T08:49:28.918Z,33.40
2023-07-24T08:52:23.111Z,33.50
2023-07-24T08:55:21.458Z,33.50
2023-07-24T08:58:03.886Z,33.50
2023-07-24T09:00:44.310Z,33.50
2023-07-24T09:03:20.499Z,33.60
2023-07-24T09:06:20.209Z,33.80
2023-07-24T09:09:08.360Z,33.90
2023-07-24T09:11:57.328Z,33.70
2023-07-24T09:14:46.843Z,33.60
2023-07-24T09:17:21.378Z,33.70
2023-07-24T09:23:23.469Z,33.70
2023-07-24T09:26:04.627Z,33.40
2023-07-24T09:28:58.583Z,33.20
2023-07-24T09:31:56.475Z,33.00
2023-07-24T09:37:12.248Z,32.90
2023-07-24T09:40:00.062Z,32.90
2023-07-24T09:42:44.105Z,32.90
2023-07-24T09:45:36.204Z,32.90
2023-07-24T09:51:09.236Z,33.20
2023-07-24T09:53:59.159Z,33.40
2023-07-24T09:56:50.201Z,33.60
2023-07-24T09:59:28.902Z,33.80
2023-07-24T10:02:06.254Z,34.00
2023-07-24T10:04:44.781Z,34.20
2023-07-24T10:07:26.024Z,34.30
2023-07-24T10:10:09.804Z,34.40
2023-07-24T10:12:52.233Z,34.50
2023-07-24T10:15:33.580Z,34.50
2023-07-24T10:18:16.752Z,34.30
2023-07-24T10:20:55.684Z,34.30
2023-07-24T10:23:33.865Z,34.50
2023-07-24T10:26:14.474Z,34.50
2023-07-24T10:28:59.376Z,34.30
2023-07-24T10:31:38.073Z,34.10
2023-07-24T10:34:17.305Z,33.90
2023-07-24T10:36:53.878Z,33.80
2023-07-24T10:39:42.075Z,33.60
2023-07-24T10:42:29.492Z,33.30
2023-07-24T10:45:16.733Z,33.00
2023-07-24T10:47:53.072Z,32.70
2023-07-24T10:50:32.242Z,32.40
2023-07-24T10:53:10.213Z,32.10
2023-07-24T10:55:46.555Z,32.00
2023-07-24T10:58:22.808Z,31.70
2023-07-24T11:01:03.687Z,31.50
2023-07-24T11:03:38.308Z,31.50
2023-07-24T11:06:45.614Z,31.40
2023-07-24T11:09:20.835Z,31.50
2023-07-24T11:12:03.471Z,31.50
2023-07-24T11:14:42.684Z,31.40
2023-07-24T11:17:22.624Z,31.40
2023-07-24T11:19:57.552Z,31.40
2023-07-24T11:22:32.380Z,31.40
2023-07-24T11:25:11.072Z,31.50
2023-07-24T11:27:48.749Z,31.60
2023-07-24T11:30:31.272Z,31.80
2023-07-24T11:33:18.657Z,32.10
2023-07-24T11:35:56.943Z,32.10
2023-07-24T11:38:37.207Z,31.90
2023-07-24T11:41:14.389Z,31.80
2023-07-24T11:43:56.311Z,31.50
2023-07-24T11:46:30.575Z,31.20
2023-07-24T11:49:09.597Z,31.00
2023-07-24T11:51:51.108Z,30.80
2023-07-24T11:54:29.835Z,30.80
2023-07-24T11:57:06.852Z,30.80
2023-07-24T11:59:46.360Z,30.90
2023-07-24T12:02:27.311Z,31.00
2023-07-24T12:05:09.115Z,31.00
2023-07-24T12:07:48.693Z,31.10
2023-07-24T12:10:40.271Z,31.20
2023-07-24T12:13:18.298Z,31.30
2023-07-24T12:15:56.600Z,31.50
2023-07-24T12:18:35.247Z,31.60
2023-07-24T12:21:12.449Z,31.60
2023-07-24T12:23:52.186Z,31.80
2023-07-24T12:26:29.583Z,31.80
2023-07-24T12:29:06.248Z,31.80
2023-07-24T12:31:44.228Z,31.70
2023-07-24T12:34:21.541Z,31.60
2023-07-24T12:37:00.676Z,31.60
2023-07-24T12:39:37.373Z,31.70
2023-07-24T12:42:15.676Z,31.60
2023-07-24T12:44:53.255Z,31.50
2023-07-24T12:47:36.793Z,31.50
2023-07-24T12:50:15.190Z,31.50
2023-07-24T12:52:58.763Z,31.50
2023-07-24T12:55:39.915Z,31.50
2023-07-24T12:58:17.899Z,31.40
2023-07-24T13:00:56.756Z,31.30
2023-07-24T13:03:34.055Z,31.20
2023-07-24T13:06:11.468Z,31.30
2023-07-24T13:08:51.674Z,31.30
2023-07-24T13:11:31.071Z,31.30
2023-07-24T13:14:07.132Z,31.20
2023-07-24T13:16:48.948Z,31.20
2023-07-24T13:19:24.285Z,31.20
2023-07-24T13:22:06.587Z,31.20
2023-07-24T13:24:47.094Z,31.30
2023-07-24T13:30:16.427Z,31.20
2023-07-24T13:32:51.647Z,31.20
2023-07-24T13:35:24.704Z,31.10
2023-07-24T13:38:15.788Z,31.10
2023-07-24T13:43:49.698Z,31.10
2023-07-24T13:46:39.578Z,31.10
2023-07-24T13:49:27.649Z,31.10
2023-07-24T13:52:16.386Z,31.10
2023-07-24T13:55:01.219Z,31.00
2023-07-24T13:57:38.649Z,31.00
2023-07-24T14:00:21.456Z,30.90
2023-07-24T14:02:57.988Z,30.90
2023-07-24T14:05:35.403Z,31.00
2023-07-24T14:08:17.382Z,31.10
2023-07-24T14:11:16.805Z,31.10
2023-07-24T14:16:33.659Z,31.20
2023-07-24T14:19:13.309Z,31.20
2023-07-24T14:21:49.259Z,31.20
2023-07-24T14:24:27.335Z,31.20
2023-07-24T14:27:03.732Z,31.30
2023-07-24T14:29:40.014Z,31.40
2023-07-24T14:32:20.658Z,31.40
2023-07-24T14:34:56.412Z,31.50
2023-07-24T14:37:47.820Z,31.50
2023-07-24T14:40:23.482Z,31.40
2023-07-24T14:43:02.011Z,31.30
2023-07-24T14:45:43.936Z,31.20
2023-07-24T14:48:20.246Z,31.20
2023-07-24T14:51:01.818Z,31.20
2023-07-24T14:53:38.778Z,31.20
2023-07-24T14:56:14.333Z,31.30
2023-07-24T14:58:50.926Z,31.40
2023-07-24T15:01:30.864Z,31.40
2023-07-24T15:04:08.842Z,31.30
2023-07-24T15:06:48.993Z,31.20
2023-07-24T15:09:25.385Z,31.20
2023-07-24T15:12:01.729Z,31.20
2023-07-24T15:14:45.697Z,31.20
2023-07-24T15:17:28.829Z,31.20
2023-07-24T15:20:07.744Z,31.00
2023-07-24T15:22:46.751Z,30.90
2023-07-24T15:25:21.598Z,30.80
2023-07-24T15:27:55.663Z,30.70
2023-07-24T15:30:34.798Z,30.60
2023-07-24T15:33:17.362Z,30.50
2023-07-24T15:35:54.040Z,30.40
2023-07-24T15:38:31.007Z,30.30
2023-07-24T15:41:16.291Z,30.30
2023-07-24T15:43:54.052Z,30.30
2023-07-24T15:46:33.517Z,30.20
2023-07-24T15:49:12.084Z,30.20
2023-07-24T15:51:54.032Z,30.20
2023-07-24T15:54:30.544Z,30.20
2023-07-24T15:57:05.964Z,30.10
2023-07-24T15:59:43.289Z,30.10
2023-07-24T16:02:20.194Z,30.10
2023-07-24T16:05:01.971Z,30.10
2023-07-24T16:07:37.072Z,30.10
2023-07-24T16:10:12.481Z,30.00
2023-07-24T16:12:52.236Z,30.00
2023-07-24T16:18:06.977Z,29.90
2023-07-24T16:20:47.481Z,29.80
2023-07-24T16:23:24.417Z,29.80
2023-07-24T16:26:02.008Z,29.70
2023-07-24T16:28:37.565Z,29.70
2023-07-24T16:31:16.571Z,29.60
2023-07-24T16:33:54.148Z,29.70
2023-07-24T16:36:32.103Z,29.60
2023-07-24T16:39:10.145Z,29.60
2023-07-24T16:41:46.901Z,29.60
2023-07-24T16:44:33.167Z,29.50
2023-07-24T16:47:12.644Z,29.50
2023-07-24T16:49:48.091Z,29.50
2023-07-24T16:52:27.421Z,29.40
2023-07-24T16:55:04.362Z,29.40
2023-07-24T16:57:44.313Z,29.30
2023-07-24T17:00:26.182Z,29.30
2023-07-24T17:03:03.413Z,29.20
2023-07-24T17:05:40.880Z,29.20
2023-07-24T17:08:18.670Z,29.10
2023-07-24T17:10:54.897Z,29.10
2023-07-24T17:13:35.671Z,29.00
2023-07-24T17:16:05.471Z,29.00
2023-07-24T17:18:42.073Z,28.90
2023-07-24T17:21:19.431Z,28.80
2023-07-24T17:24:06.535Z,28.80
2023-07-24T17:26:41.660Z,28.70
2023-07-24T17:29:20.631Z,28.70
2023-07-24T17:32:02.466Z,28.60
2023-07-24T17:34:40.332Z,28.50
2023-07-24T17:37:32.638Z,28.50
2023-07-24T17:40:25.422Z,28.40
2023-07-24T17:42:57.901Z,28.30
2023-07-24T17:45:33.587Z,28.30
2023-07-24T17:48:08.836Z,28.20
2023-07-24T17:50:43.276Z,28.10
2023-07-24T17:53:19.251Z,28.10
2023-07-24T17:56:02.130Z,28.10
2023-07-24T17:58:41.245Z,28.00
2023-07-24T18:01:22.299Z,28.00
2023-07-24T18:03:58.712Z,28.00
2023-07-24T18:06:40.005Z,27.90
2023-07-24T18:09:21.078Z,27.90
2023-07-24T18:12:01.152Z,27.90
2023-07-24T18:14:35.737Z,27.90
2023-07-24T18:17:11.016Z,27.80
2023-07-24T18:19:47.967Z,27.80
2023-07-24T18:22:25.984Z,27.80
2023-07-24T18:25:17.370Z,27.80
2023-07-24T18:27:57.536Z,27.70
2023-07-24T18:30:35.652Z,27.60
2023-07-24T18:33:14.365Z,27.60
2023-07-24T18:35:48.285Z,27.50
2023-07-24T18:38:25.126Z,27.50
2023-07-24T18:40:59.273Z,27.40
2023-07-24T18:43:39.171Z,27.40
2023-07-24T18:46:17.426Z,27.30
2023-07-24T18:48:57.275Z,27.20
2023-07-24T18:51:36.237Z,27.20
2023-07-24T18:54:15.234Z,27.10
2023-07-24T18:56:50.781Z,27.10
2023-07-24T18:59:30.247Z,27.10
2023-07-24T19:02:09.793Z,27.00
2023-07-24T19:04:47.304Z,27.00
2023-07-24T19:07:28.863Z,26.90
2023-07-24T19:10:10.734Z,26.90
2023-07-24T19:12:48.852Z,26.80
2023-07-24T19:15:28.506Z,26.80
2023-07-24T19:18:06.354Z,26.80
2023-07-24T19:20:54.098Z,26.70
2023-07-24T19:23:33.681Z,26.60
2023-07-24T19:26:10.462Z,26.60
2023-07-24T19:28:48.726Z,26.60
2023-07-24T19:31:30.079Z,26.50
2023-07-24T19:34:07.774Z,26.50
2023-07-24T19:36:46.495Z,26.50
2023-07-24T19:39:26.288Z,26.50
2023-07-24T19:42:02.606Z,26.40
2023-07-24T19:44:43.864Z,26.30
2023-07-24T19:47:25.598Z,26.30
2023-07-24T19:50:07.264Z,26.20
2023-07-24T19:52:50.701Z,26.20
2023-07-24T19:55:25.644Z,26.20
2023-07-24T19:58:03.342Z,26.20
2023-07-24T20:00:42.207Z,26.10
2023-07-24T20:03:24.997Z,26.10
2023-07-24T20:06:08.276Z,26.00
2023-07-24T20:08:46.130Z,26.00
2023-07-24T20:11:25.694Z,25.90
2023-07-24T20:14:09.285Z,25.80
2023-07-24T20:16:49.094Z,25.80
2023-07-24T20:19:45.926Z,25.70
2023-07-24T20:22:21.624Z,25.70
2023-07-24T20:24:58.017Z,25.60
2023-07-24T20:27:33.537Z,25.60
2023-07-24T20:30:11.774Z,25.50
2023-07-24T20:32:51.621Z,25.40
2023-07-24T20:35:28.721Z,25.40
2023-07-24T20:38:10.947Z,25.30
2023-07-24T20:40:46.484Z,25.30
2023-07-24T20:43:30.452Z,25.30
2023-07-24T20:46:02.985Z,25.20
2023-07-24T20:48:37.645Z,25.20
2023-07-24T20:51:26.950Z,25.10
2023-07-24T20:54:07.034Z,25.10
2023-07-24T20:56:41.617Z,25.00
2023-07-24T20:59:23.060Z,25.00
2023-07-24T21:02:04.098Z,25.00
2023-07-24T21:04:46.538Z,24.90
2023-07-24T21:07:26.366Z,24.80
2023-07-24T21:10:07.499Z,24.80
2023-07-24T21:12:46.892Z,24.70
2023-07-24T21:15:26.661Z,24.60
2023-07-24T21:18:00.144Z,24.50
2023-07-24T21:20:36.842Z,24.50
2023-07-24T21:23:11.036Z,24.40
2023-07-24T21:25:56.161Z,24.40
2023-07-24T21:28:32.827Z,24.40
2023-07-24T21:31:17.990Z,24.40
2023-07-24T21:33:53.854Z,24.30
2023-07-24T21:36:33.162Z,24.30
2023-07-24T21:39:09.461Z,24.20
2023-07-24T21:41:46.201Z,24.10
2023-07-24T21:44:18.561Z,24.10
2023-07-24T21:46:55.111Z,24.00
2023-07-24T21:49:31.477Z,23.90
2023-07-24T21:52:11.373Z,23.90
2023-07-24T21:54:47.978Z,23.80
2023-07-24T21:57:27.818Z,23.70
2023-07-24T22:00:06.389Z,23.70
2023-07-24T22:02:48.047Z,23.60
2023-07-24T22:05:23.856Z,23.60
2023-07-24T22:07:57.677Z,23.60
2023-07-24T22:10:36.095Z,23.50
2023-07-24T22:13:14.352Z,23.50
2023-07-24T22:15:52.085Z,23.50
2023-07-24T22:18:27.990Z,23.30
2023-07-24T22:21:07.866Z,23.30
2023-07-24T22:23:44.235Z,23.20
2023-07-24T22:26:18.083Z,23.30
2023-07-24T22:28:54.540Z,23.20
2023-07-24T22:31:30.894Z,23.20
2023-07-24T22:34:05.168Z,23.10
2023-07-24T22:36:42.246Z,23.10
2023-07-24T22:39:20.443Z,23.00
2023-07-24T22:41:55.870Z,22.90
2023-07-24T22:44:36.986Z,22.90
2023-07-24T22:47:13.500Z,22.90
2023-07-24T22:49:53.112Z,22.80
2023-07-24T22:52:31.591Z,22.80
2023-07-24T22:55:06.196Z,22.80
2023-07-24T22:57:44.641Z,22.70
2023-07-24T23:00:24.825Z,22.70
2023-07-24T23:03:07.773Z,22.60
2023-07-24T23:05:43.756Z,22.60
2023-07-24T23:08:20.056Z,22.60
2023-07-24T23:10:54.366Z,22.50
2023-07-24T23:13:31.138Z,22.50
2023-07-24T23:16:11.143Z,22.40
2023-07-24T23:18:48.162Z,22.40
2023-07-24T23:21:22.595Z,22.40
2023-07-24T23:23:59.708Z,22.30
2023-07-24T23:26:34.577Z,22.20
2023-07-24T23:29:19.810Z,22.20
2023-07-24T23:31:57.966Z,22.20
2023-07-24T23:34:32.738Z,22.10
2023-07-24T23:37:11.590Z,22.10
2023-07-24T23:39:47.865Z,22.00
2023-07-24T23:42:24.365Z,22.00
2023-07-24T23:45:01.902Z,21.90
2023-07-24T23:47:40.759Z,21.90
2023-07-24T23:50:17.656Z,21.80
2023-07-24T23:52:53.944Z,21.80
2023-07-24T23:55:34.747Z,21.70
2023-07-24T23:58:09.993Z,21.70
